Time;durP1;ratioP1;P1;durP2;ratioP2;P2;SDS_P1;SDS_P2;PMS_P1;PMS_P2;Temp;Humidity;BMP_temperature;BMP_pressure;BME280_temperature;BME280_humidity;BME280_pressure;Samples;Min_cycle;Max_cycle;Signal;HPM_P1;HPM_P2
2023/04/29 00:02:23;;;;;;;;;;;;;;;10.65;100.00;100306.44;5591006;31;34609;-71
2023/04/29 00:05:26;;;;;;;;;;;;;;;10.64;100.00;100310.09;5590942;31;35099;-71
2023/04/29 00:08:29;;;;;;;;;;;;;;;10.68;100.00;100303.44;5590915;31;35028;-71
2023/04/29 00:11:32;;;;;;;;;;;;;;;10.68;100.00;100300.78;5590962;31;34562;-71
2023/04/29 00:14:35;;;;;;;;;;;;;;;10.68;100.00;100308.75;5590806;31;34372;-71
2023/04/29 00:17:38;;;;;;;;;;;;;;;10.53;100.00;100305.13;5590909;31;35061;-71
2023/04/29 00:20:42;;;;;;;;;;;;;;;10.50;100.00;100293.06;5590786;31;35155;-71
2023/04/29 00:23:45;;;;;;;;;;;;;;;10.54;100.00;100282.94;5591115;31;34681;-71
2023/04/29 00:26:47;;;;;;;;;;;;;;;10.49;100.00;100291.41;5590709;31;34580;-71
2023/04/29 00:29:50;;;;;;;;;;;;;;;10.50;100.00;100284.28;5590972;31;34657;-71
2023/04/29 00:32:54;;;;;;;;;;;;;;;10.51;100.00;100281.44;5590714;31;34464;-71
2023/04/29 00:35:56;;;;;;;;;;;;;;;10.51;100.00;100285.91;5576941;31;35079;-71
2023/04/29 00:38:59;;;;;;;;;;;;;;;10.56;100.00;100284.41;5590597;31;34979;-70
2023/04/29 00:42:03;;;;;;;;;;;;;;;10.64;100.00;100286.22;5590941;31;35077;-71
2023/04/29 00:45:05;;;;;;;;;;;;;;;10.66;100.00;100286.84;5590905;31;34516;-71
2023/04/29 00:48:09;;;;;;;;;;;;;;;10.67;100.00;100293.81;5576791;31;35177;-71
2023/04/29 00:51:12;;;;;;;;;;;;;;;10.68;100.00;100295.50;5590937;31;34440;-71
2023/04/29 00:54:15;;;;;;;;;;;;;;;10.66;100.00;100295.66;5590498;31;35067;-71
2023/04/29 00:57:18;;;;;;;;;;;;;;;10.68;100.00;100295.50;5590380;31;34385;-70
2023/04/29 01:00:25;;;;;;;;;;;;;;;10.70;100.00;100299.59;5590679;31;34672;-71
2023/04/29 01:03:29;;;;;;;;;;;;;;;10.82;100.00;100306.22;5590415;31;35260;-70
2023/04/29 01:06:34;;;;;;;;;;;;;;;10.94;100.00;100296.03;5590328;31;34476;-71
2023/04/29 01:09:43;;;;;;;;;;;;;;;10.99;100.00;100292.91;5590194;31;34449;-70
2023/04/29 01:13:05;;;;;;;;;;;;;;;11.03;100.00;100297.69;5590540;31;34604;-70
2023/04/29 01:16:10;;;;;;;;;;;;;;;10.82;100.00;100289.47;5590419;31;34200;-71
2023/04/29 01:19:19;;;;;;;;;;;;;;;10.85;100.00;100297.06;5590266;31;34439;-71
2023/04/29 01:22:22;;;;;;;;;;;;;;;10.74;100.00;100300.12;5590218;31;34398;-71
2023/04/29 01:25:26;;;;;;;;;;;;;;;10.73;100.00;100293.97;5590173;31;35113;-71
2023/04/29 01:28:40;;;;;;;;;;;;;;;10.67;100.00;100292.00;5590205;31;34462;-71
2023/04/29 01:31:47;;;;;;;;;;;;;;;10.68;100.00;100293.66;5590374;31;35057;-71
2023/04/29 01:34:52;;;;;;;;;;;;;;;10.56;100.00;100286.22;5590159;31;34422;-71
2023/04/29 01:37:56;;;;;;;;;;;;;;;10.62;100.00;100293.50;5590156;31;34437;-71
2023/04/29 01:41:29;;;;;;;;;;;;;;;10.53;100.00;100287.41;5590549;31;34294;-71
2023/04/29 01:44:35;;;;;;;;;;;;;;;10.52;100.00;100284.91;5578058;31;34189;-71
2023/04/29 01:47:37;;;;;;;;;;;;;;;10.50;100.00;100289.56;5589888;31;34999;-71
2023/04/29 01:50:40;;;;;;;;;;;;;;;10.44;100.00;100286.59;5589813;31;34601;-71
2023/04/29 01:53:43;;;;;;;;;;;;;;;10.56;100.00;100286.22;5589976;31;34388;-71
2023/04/29 01:56:49;;;;;;;;;;;;;;;10.54;100.00;100280.28;5590271;31;34414;-71
2023/04/29 01:59:54;;;;;;;;;;;;;;;10.57;100.00;100275.44;5576483;31;35099;-71
2023/04/29 02:02:58;;;;;;;;;;;;;;;10.64;100.00;100273.78;5563598;31;34040;-71
2023/04/29 02:06:01;;;;;;;;;;;;;;;10.64;100.00;100283.56;5589236;31;34955;-71
2023/04/29 02:09:04;;;;;;;;;;;;;;;10.57;100.00;100291.37;5590150;31;34397;-71
2023/04/29 02:12:07;;;;;;;;;;;;;;;10.54;100.00;100282.94;5589726;31;34547;-71
2023/04/29 02:15:10;;;;;;;;;;;;;;;10.53;100.00;100282.09;5589787;31;34460;-71
2023/04/29 02:18:13;;;;;;;;;;;;;;;10.52;100.00;100274.28;5589817;31;34394;-71
2023/04/29 02:21:15;;;;;;;;;;;;;;;10.55;100.00;100281.94;5589787;31;34984;-71
2023/04/29 02:24:18;;;;;;;;;;;;;;;10.66;100.00;100277.06;5589696;31;35082;-71
2023/04/29 02:27:22;;;;;;;;;;;;;;;10.73;100.00;100280.72;5576405;31;33985;-70
2023/04/29 02:30:25;;;;;;;;;;;;;;;10.75;100.00;100276.03;5575930;31;34641;-70
2023/04/29 02:33:29;;;;;;;;;;;;;;;10.72;100.00;100287.00;5576073;31;34259;-70
2023/04/29 02:36:32;;;;;;;;;;;;;;;10.80;100.00;100280.84;5589667;31;34525;-70
2023/04/29 02:39:34;;;;;;;;;;;;;;;10.69;100.00;100274.09;5589544;31;34353;-70
2023/04/29 02:42:37;;;;;;;;;;;;;;;10.73;100.00;100278.06;5589405;31;35074;-70
2023/04/29 02:45:39;;;;;;;;;;;;;;;10.80;100.00;100276.38;5589449;31;35135;-70
2023/04/29 02:48:43;;;;;;;;;;;;;;;10.87;100.00;100276.50;5589207;31;34486;-70
2023/04/29 02:51:48;;;;;;;;;;;;;;;10.92;100.00;100270.69;5589454;31;34549;-70
2023/04/29 02:54:51;;;;;;;;;;;;;;;10.80;100.00;100268.41;5589403;31;34447;-71
2023/04/29 02:57:53;;;;;;;;;;;;;;;10.95;100.00;100262.38;5589256;31;35068;-70
2023/04/29 03:00:56;;;;;;;;;;;;;;;10.90;100.00;100261.06;5589262;31;35398;-70
2023/04/29 03:03:59;;;;;;;;;;;;;;;10.92;100.00;100260.91;5589596;31;34499;-70
2023/04/29 03:07:03;;;;;;;;;;;;;;;10.94;100.00;100269.50;5575550;31;34775;-70
2023/04/29 03:10:06;;;;;;;;;;;;;;;10.96;100.00;100270.16;5589041;31;34458;-70
2023/04/29 03:13:09;;;;;;;;;;;;;;;10.92;100.00;100268.03;5589170;31;35162;-70
2023/04/29 03:16:15;;;;;;;;;;;;;;;10.86;100.00;100272.19;5588385;31;34432;-70
2023/04/29 03:19:18;;;;;;;;;;;;;;;10.96;100.00;100256.91;5588488;31;34458;-70
2023/04/29 03:22:23;;;;;;;;;;;;;;;10.90;100.00;100273.50;5588871;31;34637;-70
2023/04/29 03:25:27;;;;;;;;;;;;;;;10.78;100.00;100262.47;5588845;31;34390;-70
2023/04/29 03:28:30;;;;;;;;;;;;;;;10.74;100.00;100265.62;5588680;31;34498;-70
2023/04/29 03:31:33;;;;;;;;;;;;;;;10.76;100.00;100275.06;5588544;31;34524;-70
2023/04/29 03:34:35;;;;;;;;;;;;;;;10.74;100.00;100274.41;5588854;31;34393;-70
2023/04/29 03:37:39;;;;;;;;;;;;;;;10.73;100.00;100283.38;5588689;31;34061;-70
2023/04/29 03:40:44;;;;;;;;;;;;;;;10.71;100.00;100276.56;5588492;31;34495;-70
2023/04/29 03:43:47;;;;;;;;;;;;;;;10.73;100.00;100275.41;5588460;31;35031;-70
2023/04/29 03:46:49;;;;;;;;;;;;;;;10.78;100.00;100275.72;5588367;31;34531;-69
2023/04/29 03:49:52;;;;;;;;;;;;;;;10.74;100.00;100274.41;5588231;31;34412;-69
2023/04/29 03:52:56;;;;;;;;;;;;;;;10.78;100.00;100288.16;5588471;31;33926;-69
2023/04/29 03:55:59;;;;;;;;;;;;;;;10.82;100.00;100292.13;5588440;31;34983;-69
2023/04/29 03:59:02;;;;;;;;;;;;;;;10.80;100.00;100286.97;5588218;31;35175;-70
2023/04/29 04:02:04;;;;;;;;;;;;;;;10.75;100.00;100291.97;5588082;31;34703;-70
2023/04/29 04:05:09;;;;;;;;;;;;;;;10.78;100.00;100291.66;5574545;31;34462;-70
2023/04/29 04:08:12;;;;;;;;;;;;;;;10.76;100.00;100292.78;5588096;31;35025;-70
2023/04/29 04:11:16;;;;;;;;;;;;;;;10.70;100.00;100299.59;5587880;31;34359;-70
2023/04/29 04:14:19;;;;;;;;;;;;;;;10.76;99.20;100308.72;5588210;31;35071;-70
2023/04/29 04:17:22;;;;;;;;;;;;;;;10.80;100.00;100302.06;5574414;31;34629;-70
2023/04/29 04:20:25;;;;;;;;;;;;;;;10.73;100.00;100307.25;5587969;31;34527;-70
2023/04/29 04:23:28;;;;;;;;;;;;;;;10.69;100.00;100308.59;5588137;31;33240;-70
2023/04/29 04:26:30;;;;;;;;;;;;;;;10.63;100.00;100311.09;5587737;31;34561;-70
2023/04/29 04:29:34;;;;;;;;;;;;;;;10.43;100.00;100310.63;5589534;31;34424;-70
2023/04/29 04:32:38;;;;;;;;;;;;;;;10.15;100.00;100315.44;5591070;31;35043;-71
2023/04/29 04:35:42;;;;;;;;;;;;;;;9.83;100.00;100310.94;5577005;31;34980;-72
2023/04/29 04:38:44;;;;;;;;;;;;;;;9.61;100.00;100301.00;5591018;31;34597;-72
2023/04/29 04:41:47;;;;;;;;;;;;;;;9.47;100.00;100296.34;5590553;31;35246;-72
2023/04/29 04:44:51;;;;;;;;;;;;;;;9.38;100.00;100299.97;5590437;31;34528;-71
2023/04/29 04:47:57;;;;;;;;;;;;;;;9.40;100.00;100303.25;5590789;31;35084;-71
2023/04/29 04:51:06;;;;;;;;;;;;;;;9.30;100.00;100292.81;5590455;31;34454;-71
2023/04/29 04:54:09;;;;;;;;;;;;;;;9.33;100.00;100300.44;5590480;31;35183;-72
2023/04/29 04:57:12;;;;;;;;;;;;;;;9.33;100.00;100299.62;5590789;31;34405;-71
2023/04/29 05:00:16;;;;;;;;;;;;;;;9.34;100.00;100296.00;5590562;31;34550;-70
2023/04/29 05:03:19;;;;;;;;;;;;;;;9.30;100.00;100295.47;5590754;31;34526;-71
2023/04/29 05:06:22;;;;;;;;;;;;;;;9.29;100.00;100285.88;5590604;31;35152;-70
2023/04/29 05:09:25;;;;;;;;;;;;;;;9.34;100.00;100296.00;5590640;31;35029;-70
2023/04/29 05:12:29;;;;;;;;;;;;;;;9.43;100.00;100282.59;5590554;31;35054;-70
2023/04/29 05:15:32;;;;;;;;;;;;;;;9.51;100.00;100289.72;5590537;31;34531;-70
2023/04/29 05:18:35;;;;;;;;;;;;;;;9.68;100.00;100291.41;5590259;31;34473;-70
2023/04/29 05:21:37;;;;;;;;;;;;;;;9.89;100.00;100293.56;5590276;31;34369;-70
2023/04/29 05:24:42;;;;;;;;;;;;;;;9.70;100.00;100292.06;5590007;31;33949;-71
2023/04/29 05:27:45;;;;;;;;;;;;;;;9.81;100.00;100294.41;5590405;31;34477;-70
2023/04/29 05:30:52;;;;;;;;;;;;;;;9.85;100.00;100294.91;5590143;31;33346;-70
2023/04/29 05:33:55;;;;;;;;;;;;;;;9.79;100.00;100295.53;5590082;31;34503;-70
2023/04/29 05:36:59;;;;;;;;;;;;;;;9.89;100.00;100298.88;5576707;31;34460;-70
2023/04/29 05:40:02;;;;;;;;;;;;;;;9.97;100.00;100298.88;5589567;31;35075;-71
2023/04/29 05:43:05;;;;;;;;;;;;;;;9.96;100.00;100299.88;5589994;31;34370;-70
2023/04/29 05:46:07;;;;;;;;;;;;;;;10.15;100.00;100304.84;5590016;31;33910;-70
2023/04/29 05:49:10;;;;;;;;;;;;;;;10.23;100.00;100306.66;5590097;31;35016;-70
2023/04/29 05:52:12;;;;;;;;;;;;;;;10.33;100.00;100304.69;5590100;31;34655;-70
2023/04/29 05:55:16;;;;;;;;;;;;;;;10.34;100.00;100309.81;5589955;31;34506;-70
2023/04/29 05:58:19;;;;;;;;;;;;;;;10.39;100.00;100307.50;5590153;31;35119;-70
2023/04/29 06:01:21;;;;;;;;;;;;;;;10.41;100.00;100305.47;5590042;31;35018;-70
2023/04/29 06:04:26;;;;;;;;;;;;;;;10.40;100.00;100305.66;5589799;31;34514;-70
2023/04/29 06:07:30;;;;;;;;;;;;;;;10.58;100.00;100303.62;5576293;31;34393;-70
2023/04/29 06:10:32;;;;;;;;;;;;;;;10.55;100.00;100309.28;5589834;31;35100;-70
2023/04/29 06:13:35;;;;;;;;;;;;;;;10.69;100.00;100305.94;5589624;31;34378;-70
2023/04/29 06:16:38;;;;;;;;;;;;;;;10.86;100.00;100317.31;5590114;31;34696;-70
2023/04/29 06:19:41;;;;;;;;;;;;;;;10.96;100.00;100328.56;5589827;31;35110;-71
2023/04/29 06:22:43;;;;;;;;;;;;;;;11.03;100.00;100337.50;5589700;31;35078;-70
2023/04/29 06:25:46;;;;;;;;;;;;;;;11.03;100.00;100337.50;5589640;31;34670;-70
2023/04/29 06:28:49;;;;;;;;;;;;;;;11.04;100.00;100327.69;5589556;31;34558;-70
2023/04/29 06:31:52;;;;;;;;;;;;;;;11.04;100.00;100325.03;5589578;31;35094;-70
2023/04/29 06:34:56;;;;;;;;;;;;;;;11.09;100.00;100328.84;5589545;31;34470;-70
2023/04/29 06:37:59;;;;;;;;;;;;;;;11.23;100.00;100322.78;5589721;31;34536;-70
2023/04/29 06:41:03;;;;;;;;;;;;;;;11.46;100.00;100319.38;5589453;31;35174;-70
2023/04/29 06:44:06;;;;;;;;;;;;;;;11.58;100.00;100326.75;5589480;31;34453;-70
2023/04/29 06:47:08;;;;;;;;;;;;;;;11.65;100.00;100321.59;5575953;31;35088;-70
2023/04/29 06:50:12;;;;;;;;;;;;;;;11.65;100.00;100329.56;5584438;31;147065;-71
2023/04/29 06:53:15;;;;;;;;;;;;;;;11.74;100.00;100331.19;5588726;31;32541;-70
2023/04/29 06:56:17;;;;;;;;;;;;;;;11.87;100.00;100330.59;5589635;31;34508;-69
2023/04/29 06:59:22;;;;;;;;;;;;;;;11.92;100.00;100338.84;5589659;31;34339;-70
2023/04/29 07:02:24;;;;;;;;;;;;;;;11.94;100.00;100335.03;5589454;31;35028;-70
2023/04/29 07:05:28;;;;;;;;;;;;;;;12.05;100.00;100329.28;5589432;31;34673;-70
2023/04/29 07:08:30;;;;;;;;;;;;;;;11.89;97.81;100336.56;5589046;31;34971;-70
2023/04/29 07:11:33;;;;;;;;;;;;;;;11.85;98.32;100336.09;5588772;31;34224;-70
2023/04/29 07:14:36;;;;;;;;;;;;;;;12.03;100.00;100330.47;5589063;31;34501;-72
2023/04/29 07:17:39;;;;;;;;;;;;;;;12.12;100.00;100329.41;5588916;31;35131;-70
2023/04/29 07:20:43;;;;;;;;;;;;;;;12.26;100.00;100328.59;5588929;31;34442;-70
2023/04/29 07:23:46;;;;;;;;;;;;;;;12.32;100.00;100337.72;5575278;31;35039;-72
2023/04/29 07:26:49;;;;;;;;;;;;;;;12.34;100.00;100333.88;5588582;31;34494;-71
2023/04/29 07:29:52;;;;;;;;;;;;;;;12.34;100.00;100339.19;5588891;31;34462;-71
2023/04/29 07:32:54;;;;;;;;;;;;;;;12.33;98.99;100345.53;5588624;31;35013;-71
2023/04/29 07:35:58;;;;;;;;;;;;;;;12.46;98.66;100339.56;5589014;31;34422;-71
2023/04/29 07:39:00;;;;;;;;;;;;;;;12.47;95.22;100339.41;5588569;31;34390;-71
2023/04/29 07:42:03;;;;;;;;;;;;;;;12.66;95.22;100332.72;5588614;31;34479;-71
2023/04/29 07:45:06;;;;;;;;;;;;;;;12.81;90.38;100338.06;5588532;31;35110;-71
2023/04/29 07:48:08;;;;;;;;;;;;;;;12.88;90.20;100330.97;5588615;31;34352;-71
2023/04/29 07:51:12;;;;;;;;;;;;;;;13.05;81.67;100343.09;5588220;31;34500;-71
2023/04/29 07:54:18;;;;;;;;;;;;;;;13.27;84.11;100347.50;5588360;31;34466;-71
2023/04/29 07:57:20;;;;;;;;;;;;;;;13.32;81.23;100341.63;5588034;31;34451;-71
2023/04/29 08:00:23;;;;;;;;;;;;;;;13.36;77.72;100351.72;5588197;31;34521;-71
2023/04/29 08:03:26;;;;;;;;;;;;;;;13.35;77.46;100349.28;5588825;31;34473;-71
2023/04/29 08:06:29;;;;;;;;;;;;;;;13.46;80.16;100348.75;5591152;31;35051;-71
2023/04/29 08:09:32;;;;;;;;;;;;;;;13.53;72.52;100351.53;5590722;31;34430;-71
2023/04/29 08:12:34;;;;;;;;;;;;;;;13.85;73.59;100353.72;5590608;31;34348;-71
2023/04/29 08:15:37;;;;;;;;;;;;;;;14.23;68.99;100352.44;5590454;31;35036;-72
2023/04/29 08:18:40;;;;;;;;;;;;;;;14.72;69.07;100356.97;5590484;31;34596;-72
2023/04/29 08:21:42;;;;;;;;;;;;;;;15.02;61.63;100361.06;5590880;31;34443;-72
2023/04/29 08:24:45;;;;;;;;;;;;;;;15.15;64.10;100363.00;5590616;31;34447;-72
2023/04/29 08:27:48;;;;;;;;;;;;;;;15.15;61.16;100363.00;5590529;31;35168;-72
2023/04/29 08:30:51;;;;;;;;;;;;;;;14.42;60.96;100369.69;5590761;31;35144;-72
2023/04/29 08:33:54;;;;;;;;;;;;;;;14.59;66.55;100362.22;5590770;31;35041;-72
2023/04/29 08:36:57;;;;;;;;;;;;;;;14.96;69.33;100361.84;5590766;31;34721;-71
2023/04/29 08:40:00;;;;;;;;;;;;;;;15.25;60.37;100366.09;5590475;31;34463;-72
2023/04/29 08:43:03;;;;;;;;;;;;;;;15.35;60.59;100369.25;5590348;31;34526;-71
2023/04/29 08:46:06;;;;;;;;;;;;;;;15.52;60.57;100354.56;5590367;31;35372;-71
2023/04/29 08:49:08;;;;;;;;;;;;;;;15.83;57.68;100363.91;5590279;31;35201;-72
2023/04/29 08:52:11;;;;;;;;;;;;;;;16.01;61.70;100351.59;5590231;31;35056;-71
2023/04/29 08:55:14;;;;;;;;;;;;;;;15.79;59.47;100359.97;5590361;31;34515;-71
2023/04/29 08:58:17;;;;;;;;;;;;;;;14.59;56.71;100376.37;5590367;31;35202;-73
2023/04/29 09:01:20;;;;;;;;;;;;;;;15.15;57.95;100365.66;5590346;31;34557;-72
2023/04/29 09:04:29;;;;;;;;;;;;;;;15.46;57.77;100363.34;5576588;31;34621;-71
2023/04/29 09:07:32;;;;;;;;;;;;;;;15.21;56.41;100368.34;5589844;31;34658;-71
2023/04/29 09:10:36;;;;;;;;;;;;;;;15.42;57.40;100367.44;5589941;31;35101;-70
2023/04/29 09:13:38;;;;;;;;;;;;;;;15.50;56.63;100375.28;5590256;31;34323;-71
2023/04/29 09:16:41;;;;;;;;;;;;;;;15.58;57.09;100375.16;5589025;31;34723;-71
2023/04/29 09:19:43;;;;;;;;;;;;;;;15.55;57.87;100382.72;5590162;31;35095;-71
2023/04/29 09:22:46;;;;;;;;;;;;;;;15.34;52.67;100382.81;5590107;31;34466;-71
2023/04/29 09:25:55;;;;;;;;;;;;;;;15.31;54.14;100381.34;5589867;31;34457;-71
2023/04/29 09:29:08;;;;;;;;;;;;;;;15.32;54.42;100379.50;5589539;31;35180;-71
2023/04/29 09:32:20;;;;;;;;;;;;;;;15.07;55.88;100373.81;5589891;31;35178;-71
2023/04/29 09:35:25;;;;;;;;;;;;;;;15.16;56.19;100377.97;5589927;31;35063;-70
2023/04/29 09:38:27;;;;;;;;;;;;;;;15.73;53.96;100379.50;5589858;31;35075;-71
2023/04/29 09:41:31;;;;;;;;;;;;;;;15.51;53.62;100370.78;5589909;31;35080;-71
2023/04/29 09:44:36;;;;;;;;;;;;;;;15.34;50.10;100378.31;5589926;31;34994;-70
2023/04/29 09:47:39;;;;;;;;;;;;;;;15.69;52.61;100372.91;5576167;31;34569;-70
2023/04/29 09:50:42;;;;;;;;;;;;;;;15.88;49.98;100364.09;5590211;31;34691;-70
2023/04/29 09:53:45;;;;;;;;;;;;;;;16.17;47.67;100365.63;5590244;31;34401;-71
2023/04/29 09:56:48;;;;;;;;;;;;;;;16.00;49.77;100362.50;5589923;31;34512;-71
2023/04/29 09:59:52;;;;;;;;;;;;;;;16.37;48.97;100366.44;5589841;31;35084;-71
2023/04/29 10:02:56;;;;;;;;;;;;;;;16.30;48.94;100357.59;5590223;31;34485;-71
2023/04/29 10:06:06;;;;;;;;;;;;;;;16.35;48.38;100358.63;5590068;31;34390;-71
2023/04/29 10:09:12;;;;;;;;;;;;;;;16.48;49.33;100355.94;5589604;31;34617;-71
2023/04/29 10:12:16;;;;;;;;;;;;;;;16.75;46.97;100359.44;5589135;31;34677;-71
2023/04/29 10:15:26;;;;;;;;;;;;;;;16.58;47.26;100352.00;5589745;31;35017;-71
2023/04/29 10:18:34;;;;;;;;;;;;;;;16.96;45.10;100355.69;5575852;31;34521;-72
2023/04/29 10:21:37;;;;;;;;;;;;;;;17.45;43.10;100344.41;5589727;31;34468;-71
2023/04/29 10:24:41;;;;;;;;;;;;;;;17.31;45.87;100350.84;5575877;31;34320;-71
2023/04/29 10:27:44;;;;;;;;;;;;;;;17.57;42.40;100349.94;5589072;31;35082;-71
2023/04/29 10:30:51;;;;;;;;;;;;;;;17.91;41.05;100354.91;5589501;31;35055;-71
2023/04/29 10:33:56;;;;;;;;;;;;;;;18.34;42.57;100348.84;5589710;31;34389;-71
2023/04/29 10:37:00;;;;;;;;;;;;;;;18.51;41.74;100344.53;5590127;31;34366;-71
2023/04/29 10:40:05;;;;;;;;;;;;;;;18.32;40.31;100343.66;5589413;31;35062;-70
2023/04/29 10:43:08;;;;;;;;;;;;;;;18.21;41.73;100333.62;5589389;31;34510;-71
2023/04/29 10:46:19;;;;;;;;;;;;;;;19.17;39.43;100333.97;5589462;31;34342;-71
2023/04/29 10:49:22;;;;;;;;;;;;;;;19.94;38.45;100318.91;5589215;31;34375;-71
2023/04/29 10:52:26;;;;;;;;;;;;;;;19.14;38.93;100312.91;5575804;31;35050;-71
2023/04/29 10:55:29;;;;;;;;;;;;;;;20.68;37.80;100307.50;5589281;31;34489;-71
2023/04/29 10:58:43;;;;;;;;;;;;;;;20.22;38.77;100302.91;5575803;31;35062;-72
2023/04/29 11:01:52;;;;;;;;;;;;;;;19.29;38.51;100307.12;5589181;31;34480;-70
2023/04/29 11:05:07;;;;;;;;;;;;;;;20.76;36.89;100293.69;5588998;31;34889;-71
2023/04/29 11:08:22;;;;;;;;;;;;;;;21.35;37.79;100280.87;5589408;31;34516;-71
2023/04/29 11:11:25;;;;;;;;;;;;;;;20.41;38.17;100284.81;5589149;31;34527;-72
2023/04/29 11:14:31;;;;;;;;;;;;;;;20.19;38.50;100278.28;5589031;31;34591;-72
2023/04/29 11:17:35;;;;;;;;;;;;;;;19.57;39.00;100277.00;5575139;31;34365;-72
2023/04/29 11:21:01;;;;;;;;;;;;;;;20.30;37.25;100272.09;5588819;31;35135;-71
2023/04/29 11:24:05;;;;;;;;;;;;;;;20.85;37.01;100269.06;5581147;31;35096;-70
2023/04/29 11:27:08;;;;;;;;;;;;;;;23.53;33.73;100266.09;5588954;31;34483;-71
2023/04/29 11:30:11;;;;;;;;;;;;;;;21.94;33.87;100266.06;5588479;31;34515;-72
2023/04/29 11:33:14;;;;;;;;;;;;;;;22.50;36.42;100266.94;5588705;31;35069;-72
2023/04/29 11:36:17;;;;;;;;;;;;;;;24.03;33.06;100262.22;5588440;31;34391;-72
2023/04/29 11:39:20;;;;;;;;;;;;;;;23.29;32.83;100254.72;5590273;31;35027;-73
2023/04/29 11:42:22;;;;;;;;;;;;;;;24.66;32.30;100270.28;5590938;31;34410;-72
2023/04/29 11:45:25;;;;;;;;;;;;;;;26.98;27.61;100262.69;5590945;31;34370;-72
2023/04/29 11:48:29;;;;;;;;;;;;;;;27.91;27.05;100260.81;5590840;31;35146;-73
2023/04/29 11:51:33;;;;;;;;;;;;;;;25.42;29.64;100258.94;5591238;31;34336;-73
2023/04/29 11:54:35;;;;;;;;;;;;;;;25.53;29.29;100258.69;5591236;31;34451;-75
2023/04/29 11:57:39;;;;;;;;;;;;;;;28.10;28.40;100256.28;5590868;31;34482;-74
2023/04/29 12:00:41;;;;;;;;;;;;;;;30.29;25.12;100259.75;5590961;31;35103;-74
2023/04/29 12:03:45;;;;;;;;;;;;;;;32.19;21.22;100255.94;5590619;31;35094;-73
2023/04/29 12:06:50;;;;;;;;;;;;;;;29.98;23.82;100251.25;5590823;31;35138;-73
2023/04/29 12:09:54;;;;;;;;;;;;;;;33.32;21.00;100247.00;5590868;31;34457;-72
2023/04/29 12:12:57;;;;;;;;;;;;;;;33.91;20.84;100247.34;5590683;31;35051;-72
2023/04/29 12:16:02;;;;;;;;;;;;;;;32.16;22.05;100248.31;5590871;31;34439;-72
2023/04/29 12:19:05;;;;;;;;;;;;;;;29.28;23.69;100248.47;5576874;31;34325;-73
2023/04/29 12:22:08;;;;;;;;;;;;;;;28.65;25.12;100240.50;5590566;31;34473;-72
2023/04/29 12:25:11;;;;;;;;;;;;;;;26.79;28.50;100235.25;5590815;31;34397;-73
2023/04/29 12:28:14;;;;;;;;;;;;;;;25.20;29.79;100228.47;5591076;31;34433;-72
2023/04/29 12:31:16;;;;;;;;;;;;;;;25.98;30.00;100223.72;5590934;31;34430;-72
2023/04/29 12:34:27;;;;;;;;;;;;;;;24.64;32.08;100222.81;5590524;31;34612;-72
2023/04/29 12:37:29;;;;;;;;;;;;;;;27.05;28.37;100230.56;5576653;31;34390;-74
2023/04/29 12:40:32;;;;;;;;;;;;;;;29.62;25.28;100229.12;5590483;31;34560;-72
2023/04/29 12:43:36;;;;;;;;;;;;;;;31.92;22.30;100217.63;5590425;31;34632;-73
2023/04/29 12:46:39;;;;;;;;;;;;;;;32.10;22.30;100229.53;5590442;31;34400;-73
2023/04/29 12:49:42;;;;;;;;;;;;;;;30.73;22.85;100210.75;5576200;31;35054;-72
2023/04/29 12:52:45;;;;;;;;;;;;;;;32.22;22.28;100221.56;5590257;31;34659;-73
2023/04/29 12:55:48;;;;;;;;;;;;;;;29.53;23.95;100209.03;5576496;31;34470;-73
2023/04/29 12:58:51;;;;;;;;;;;;;;;28.71;25.80;100201.12;5590440;31;34471;-74
2023/04/29 13:01:54;;;;;;;;;;;;;;;29.69;24.57;100194.00;5590331;31;34522;-73
2023/04/29 13:04:57;;;;;;;;;;;;;;;31.03;23.34;100195.63;5590205;31;34614;-75
2023/04/29 13:08:00;;;;;;;;;;;;;;;29.29;25.87;100181.75;5590272;31;34555;-72
2023/04/29 13:11:04;;;;;;;;;;;;;;;32.92;21.32;100185.78;5590249;31;35080;-73
2023/04/29 13:14:06;;;;;;;;;;;;;;;33.51;20.92;100181.47;5590194;31;34518;-72
2023/04/29 13:17:09;;;;;;;;;;;;;;;28.81;25.55;100172.87;5590305;31;35172;-72
2023/04/29 13:20:14;;;;;;;;;;;;;;;28.17;25.65;100165.16;5590121;31;34397;-72
2023/04/29 13:23:16;;;;;;;;;;;;;;;26.47;28.53;100170.34;5590104;31;34358;-72
2023/04/29 13:26:19;;;;;;;;;;;;;;;23.98;32.39;100164.62;5589989;31;34649;-71
2023/04/29 13:29:22;;;;;;;;;;;;;;;23.45;33.26;100158.28;5590193;31;35045;-73
2023/04/29 13:32:25;;;;;;;;;;;;;;;23.82;32.99;100158.28;5576718;31;34554;-71
2023/04/29 13:35:44;;;;;;;;;;;;;;;23.56;33.59;100161.88;5589885;31;35021;-72
2023/04/29 13:38:47;;;;;;;;;;;;;;;23.41;33.69;100154.41;5589746;31;34476;-72
2023/04/29 13:41:58;;;;;;;;;;;;;;;22.42;33.79;100143.81;5589954;31;35074;-72
2023/04/29 13:45:02;;;;;;;;;;;;;;;22.58;35.27;100144.03;5590155;31;35043;-72
2023/04/29 13:48:05;;;;;;;;;;;;;;;22.43;36.15;100140.06;5589853;31;35041;-71
2023/04/29 13:51:27;;;;;;;;;;;;;;;23.23;34.16;100131.25;5589985;31;34466;-73
2023/04/29 13:54:33;;;;;;;;;;;;;;;29.83;25.74;100122.94;5576377;31;34346;-73
2023/04/29 13:57:49;;;;;;;;;;;;;;;28.73;26.76;100133.38;5590211;31;34595;-72
2023/04/29 14:01:12;;;;;;;;;;;;;;;25.37;29.83;100134.81;5589125;31;34303;-73
2023/04/29 14:04:35;;;;;;;;;;;;;;;25.89;29.54;100139.19;5590046;31;34340;-71
2023/04/29 14:07:38;;;;;;;;;;;;;;;24.48;30.96;100142.44;5589818;31;34495;-72
2023/04/29 14:10:41;;;;;;;;;;;;;;;22.15;35.60;100136.72;5589650;31;34834;-71
2023/04/29 14:13:43;;;;;;;;;;;;;;;21.00;37.44;100137.22;5575922;31;34963;-71
2023/04/29 14:16:46;;;;;;;;;;;;;;;20.98;38.14;100136.63;5589792;31;34924;-70
2023/04/29 14:19:49;;;;;;;;;;;;;;;21.30;38.46;100126.97;5589536;31;34624;-71
2023/04/29 14:22:51;;;;;;;;;;;;;;;22.51;35.34;100128.00;5589726;31;34485;-71
2023/04/29 14:25:54;;;;;;;;;;;;;;;23.12;35.63;100126.81;5589950;31;34985;-72
2023/04/29 14:29:17;;;;;;;;;;;;;;;21.71;37.78;100119.56;5589838;31;35169;-72
2023/04/29 14:32:20;;;;;;;;;;;;;;;21.99;37.13;100122.97;5575800;31;35011;-72
2023/04/29 14:35:23;;;;;;;;;;;;;;;21.29;38.58;100124.56;5589549;31;34528;-71
2023/04/29 14:38:25;;;;;;;;;;;;;;;21.10;38.64;100110.44;5589410;31;34796;-71
2023/04/29 14:41:28;;;;;;;;;;;;;;;20.24;40.50;100101.44;5589416;31;34800;-71
2023/04/29 14:44:30;;;;;;;;;;;;;;;20.54;40.43;100106.69;5589447;31;34597;-71
2023/04/29 14:47:33;;;;;;;;;;;;;;;20.59;40.06;100101.37;5589282;31;34501;-71
2023/04/29 14:50:35;;;;;;;;;;;;;;;20.71;39.57;100098.66;5589105;31;34550;-71
2023/04/29 14:53:38;;;;;;;;;;;;;;;20.70;40.30;100105.09;5589230;31;34907;-71
2023/04/29 14:56:41;;;;;;;;;;;;;;;20.55;40.75;100110.19;5588996;31;34499;-70
2023/04/29 14:59:43;;;;;;;;;;;;;;;20.03;42.56;100117.41;5588223;31;34362;-72
2023/04/29 15:02:46;;;;;;;;;;;;;;;19.65;42.94;100115.22;5589028;31;35209;-71
2023/04/29 15:05:50;;;;;;;;;;;;;;;19.01;44.79;100111.41;5589015;31;34362;-70
2023/04/29 15:08:53;;;;;;;;;;;;;;;18.80;44.54;100118.13;5589184;31;35123;-71
2023/04/29 15:11:55;;;;;;;;;;;;;;;19.25;44.38;100123.06;5574896;31;34365;-70
2023/04/29 15:14:58;;;;;;;;;;;;;;;19.79;43.07;100124.69;5588759;31;34476;-71
2023/04/29 15:18:00;;;;;;;;;;;;;;;19.99;42.75;100114.38;5588724;31;35103;-72
2023/04/29 15:21:03;;;;;;;;;;;;;;;19.44;43.46;100106.62;5588532;31;34493;-71
2023/04/29 15:24:07;;;;;;;;;;;;;;;19.30;43.79;100109.75;5588714;31;34631;-71
2023/04/29 15:27:10;;;;;;;;;;;;;;;19.12;44.74;100115.19;5588538;31;34529;-71
2023/04/29 15:30:12;;;;;;;;;;;;;;;19.23;44.56;100119.78;5588516;31;34864;-71
2023/04/29 15:33:15;;;;;;;;;;;;;;;19.30;44.38;100121.31;5588884;31;35186;-73
2023/04/29 15:36:18;;;;;;;;;;;;;;;19.13;44.71;100114.94;5574663;31;34446;-74
2023/04/29 15:39:20;;;;;;;;;;;;;;;18.63;45.78;100109.88;5588337;31;34437;-72
2023/04/29 15:42:23;;;;;;;;;;;;;;;18.71;45.85;100100.69;5588582;31;35008;-72